Time;durP1;ratioP1;P1;durP2;ratioP2;P2;SDS_P1;SDS_P2;PMS_P1;PMS_P2;Temp;Humidity;BMP_temperature;BMP_pressure;BME280_temperature;BME280_humidity;BME280_pressure;Samples;Min_cycle;Max_cycle;Signal;HPM_P1;HPM_P2
2022/08/21 00:01:11;;;;;;;6.80;2.83;;;;;;;;;;5075475;28;20028;-81
2022/08/21 00:03:37;;;;;;;4.97;2.83;;;;;;;;;;5075514;28;20099;-81
2022/08/21 00:06:03;;;;;;;4.40;2.78;;;;;;;;;;5071181;28;20482;-81
2022/08/21 00:08:29;;;;;;;7.53;2.72;;;;;;;;;;5071987;28;20028;-81
2022/08/21 00:10:55;;;;;;;5.53;3.20;;;;;;;;;;5091337;28;20363;-80
2022/08/21 00:13:21;;;;;;;5.22;2.70;;;;;;;;;;5090794;28;20032;-81
2022/08/21 00:15:47;;;;;;;3.53;2.70;;;;;;;;;;5091129;28;20020;-80
2022/08/21 00:18:13;;;;;;;4.05;2.72;;;;;;;;;;5091044;28;20024;-80
2022/08/21 00:20:41;;;;;;;5.43;2.65;;;;;;;;;;5090774;28;20387;-79
2022/08/21 00:23:07;;;;;;;3.25;2.40;;;;;;;;;;5091427;28;20020;-81
2022/08/21 00:25:34;;;;;;;4.07;2.58;;;;;;;;;;5089637;28;20539;-80
2022/08/21 00:28:01;;;;;;;3.83;2.50;;;;;;;;;;5090797;28;20434;-81
2022/08/21 00:30:27;;;;;;;4.55;2.60;;;;;;;;;;5090811;28;20421;-81
2022/08/21 00:32:54;;;;;;;5.20;2.58;;;;;;;;;;5091261;28;20065;-80
2022/08/21 00:35:22;;;;;;;4.22;2.50;;;;;;;;;;5090537;28;20020;-81
2022/08/21 00:37:49;;;;;;;3.95;2.72;;;;;;;;;;5092469;28;20028;-80
2022/08/21 00:40:16;;;;;;;5.20;2.85;;;;;;;;;;5087839;28;20106;-82
2022/08/21 00:42:43;;;;;;;3.53;2.42;;;;;;;;;;5073704;28;20013;-81
2022/08/21 00:45:10;;;;;;;5.75;2.70;;;;;;;;;;5071606;28;20059;-82
2022/08/21 00:47:36;;;;;;;4.38;2.60;;;;;;;;;;5070636;28;20167;-81
2022/08/21 00:50:03;;;;;;;7.38;2.42;;;;;;;;;;5071156;28;20028;-82
2022/08/21 00:52:32;;;;;;;3.45;2.30;;;;;;;;;;5071329;28;20428;-81
2022/08/21 00:54:59;;;;;;;4.20;2.33;;;;;;;;;;5082052;28;20024;-81
2022/08/21 00:57:34;;;;;;;6.28;2.58;;;;;;;;;;5092180;28;20051;-81
2022/08/21 01:00:01;;;;;;;3.90;2.53;;;;;;;;;;5090345;28;20026;-83
2022/08/21 01:02:28;;;;;;;4.97;2.10;;;;;;;;;;5090358;28;20016;-81
2022/08/21 01:04:54;;;;;;;4.22;2.60;;;;;;;;;;5084346;28;20031;-81
2022/08/21 01:07:20;;;;;;;3.75;2.67;;;;;;;;;;5074994;28;20038;-81
2022/08/21 01:09:47;;;;;;;3.42;2.38;;;;;;;;;;5074877;28;20115;-80
2022/08/21 01:12:13;;;;;;;5.70;2.83;;;;;;;;;;5072972;28;20074;-80
2022/08/21 01:14:41;;;;;;;3.55;2.42;;;;;;;;;;5083336;28;20115;-81
2022/08/21 01:17:07;;;;;;;3.60;2.65;;;;;;;;;;5078893;28;20016;-81
2022/08/21 01:19:34;;;;;;;3.08;2.00;;;;;;;;;;5074053;28;20550;-80
2022/08/21 01:22:00;;;;;;;4.25;2.10;;;;;;;;;;5080915;28;20012;-81
2022/08/21 01:24:26;;;;;;;3.65;2.30;;;;;;;;;;5076542;28;20017;-80
2022/08/21 01:26:52;;;;;;;3.42;2.17;;;;;;;;;;5076957;28;20090;-81
2022/08/21 01:29:24;;;;;;;4.63;2.45;;;;;;;;;;5075420;28;20503;-81
2022/08/21 01:31:50;;;;;;;4.47;2.25;;;;;;;;;;5072036;28;20446;-82
2022/08/21 01:34:16;;;;;;;5.55;2.38;;;;;;;;;;5076035;28;20063;-81
2022/08/21 01:36:43;;;;;;;4.13;2.50;;;;;;;;;;5094480;28;20043;-80
2022/08/21 01:39:09;;;;;;;5.47;2.53;;;;;;;;;;5095337;28;20031;-80
2022/08/21 01:41:35;;;;;;;3.97;2.38;;;;;;;;;;5094326;28;20374;-81
2022/08/21 01:44:01;;;;;;;4.25;2.20;;;;;;;;;;5094731;28;20143;-81
2022/08/21 01:46:27;;;;;;;7.88;2.10;;;;;;;;;;5093750;28;20085;-81
2022/08/21 01:48:53;;;;;;;4.22;2.05;;;;;;;;;;5093268;28;20020;-79
2022/08/21 01:51:19;;;;;;;4.15;2.20;;;;;;;;;;5075004;28;20028;-81
2022/08/21 01:53:45;;;;;;;3.92;2.10;;;;;;;;;;5074418;28;20459;-81
2022/08/21 01:56:13;;;;;;;4.60;2.50;;;;;;;;;;5073536;28;20020;-81
2022/08/21 01:58:43;;;;;;;4.93;2.13;;;;;;;;;;5073975;28;20029;-80
2022/08/21 02:01:09;;;;;;;3.97;2.33;;;;;;;;;;5073068;28;20036;-83
2022/08/21 02:03:35;;;;;;;3.25;2.10;;;;;;;;;;5075027;28;20134;-81
2022/08/21 02:06:01;;;;;;;4.00;2.20;;;;;;;;;;5088945;28;20493;-80
2022/08/21 02:08:28;;;;;;;4.40;2.10;;;;;;;;;;5094809;28;20032;-81
2022/08/21 02:10:54;;;;;;;3.97;2.10;;;;;;;;;;5092973;28;20073;-81
2022/08/21 02:13:20;;;;;;;3.90;2.10;;;;;;;;;;5092960;28;20386;-81
2022/08/21 02:15:47;;;;;;;4.15;2.10;;;;;;;;;;5094516;28;20021;-81
2022/08/21 02:18:13;;;;;;;4.93;2.20;;;;;;;;;;5095039;28;20020;-80
2022/08/21 02:20:45;;;;;;;3.55;1.98;;;;;;;;;;5093014;28;20073;-81
2022/08/21 02:23:11;;;;;;;3.20;2.30;;;;;;;;;;5094643;28;20544;-83
2022/08/21 02:25:38;;;;;;;5.72;2.30;;;;;;;;;;5092847;28;20024;-80
2022/08/21 02:28:10;;;;;;;4.90;2.42;;;;;;;;;;5093433;28;20032;-81
2022/08/21 02:30:37;;;;;;;4.65;2.10;;;;;;;;;;5090162;28;20017;-81
2022/08/21 02:33:03;;;;;;;3.10;2.17;;;;;;;;;;5083920;28;20024;-80
2022/08/21 02:35:29;;;;;;;4.63;2.15;;;;;;;;;;5077154;28;20253;-80
2022/08/21 02:37:58;;;;;;;4.03;2.20;;;;;;;;;;5076278;28;20024;-80
2022/08/21 02:40:26;;;;;;;3.25;1.92;;;;;;;;;;5085742;28;20371;-82
2022/08/21 02:42:52;;;;;;;3.43;2.23;;;;;;;;;;5079682;28;20020;-82
2022/08/21 02:45:19;;;;;;;3.03;1.80;;;;;;;;;;5076921;28;20037;-80
2022/08/21 02:47:55;;;;;;;3.42;1.77;;;;;;;;;;5073078;28;20028;-81
2022/08/21 02:50:22;;;;;;;3.45;2.28;;;;;;;;;;5074508;28;20020;-80
2022/08/21 02:52:49;;;;;;;3.03;2.05;;;;;;;;;;5073681;28;20371;-81
2022/08/21 02:55:15;;;;;;;2.40;1.88;;;;;;;;;;5082782;28;20017;-81
2022/08/21 02:57:41;;;;;;;4.60;2.30;;;;;;;;;;5072037;28;20468;-81
2022/08/21 03:00:10;;;;;;;3.60;2.30;;;;;;;;;;5071971;28;20031;-80
2022/08/21 03:02:36;;;;;;;4.40;2.03;;;;;;;;;;5080098;28;20032;-80
2022/08/21 03:05:03;;;;;;;2.72;1.80;;;;;;;;;;5075358;28;20077;-81
2022/08/21 03:07:28;;;;;;;4.45;2.17;;;;;;;;;;5081853;28;20293;-81
2022/08/21 03:09:54;;;;;;;3.17;2.00;;;;;;;;;;5078340;28;20431;-80
2022/08/21 03:12:20;;;;;;;3.22;1.60;;;;;;;;;;5079289;28;20039;-81
2022/08/21 03:14:46;;;;;;;5.60;1.73;;;;;;;;;;5082447;28;20036;-81
2022/08/21 03:17:12;;;;;;;3.05;1.67;;;;;;;;;;5077631;28;20025;-80
2022/08/21 03:19:39;;;;;;;6.50;2.00;;;;;;;;;;5072497;28;20032;-80
2022/08/21 03:22:05;;;;;;;4.28;1.63;;;;;;;;;;5081572;28;20031;-80
2022/08/21 03:24:31;;;;;;;2.72;1.65;;;;;;;;;;5088516;28;20020;-81
2022/08/21 03:26:57;;;;;;;3.10;1.70;;;;;;;;;;5076448;28;20080;-81
2022/08/21 03:29:23;;;;;;;4.07;1.90;;;;;;;;;;5073016;28;20469;-81
2022/08/21 03:31:49;;;;;;;3.35;1.70;;;;;;;;;;5082876;28;20675;-80
2022/08/21 03:34:15;;;;;;;4.88;1.80;;;;;;;;;;5092129;28;20039;-81
2022/08/21 03:36:41;;;;;;;4.35;1.60;;;;;;;;;;5091360;28;20436;-80
2022/08/21 03:39:07;;;;;;;2.47;1.60;;;;;;;;;;5092223;28;20061;-81
2022/08/21 03:41:33;;;;;;;2.85;1.60;;;;;;;;;;5091573;28;20050;-80
2022/08/21 03:43:59;;;;;;;4.53;1.63;;;;;;;;;;5093386;28;20028;-80
2022/08/21 03:46:25;;;;;;;3.88;1.90;;;;;;;;;;5081290;28;20660;-80
2022/08/21 03:48:52;;;;;;;4.50;1.80;;;;;;;;;;5071307;28;20116;-81
2022/08/21 03:51:18;;;;;;;2.55;1.55;;;;;;;;;;5070846;28;20017;-83
2022/08/21 03:53:44;;;;;;;2.60;1.52;;;;;;;;;;5071688;28;20044;-81
2022/08/21 03:56:11;;;;;;;3.42;1.58;;;;;;;;;;5070161;28;20485;-81
2022/08/21 03:58:38;;;;;;;5.47;1.83;;;;;;;;;;5071345;28;20428;-80
2022/08/21 04:01:05;;;;;;;2.22;1.40;;;;;;;;;;5078397;28;20112;-80
2022/08/21 04:03:31;;;;;;;4.18;1.73;;;;;;;;;;5086481;28;20439;-84
2022/08/21 04:05:57;;;;;;;3.08;1.65;;;;;;;;;;5090255;28;20110;-80
2022/08/21 04:08:24;;;;;;;3.05;1.73;;;;;;;;;;5092203;28;20099;-80
2022/08/21 04:10:51;;;;;;;3.08;1.50;;;;;;;;;;5091341;28;20108;-81
2022/08/21 04:13:17;;;;;;;3.55;1.75;;;;;;;;;;5092015;28;20060;-80
2022/08/21 04:15:43;;;;;;;3.83;1.67;;;;;;;;;;5089838;28;20063;-81
2022/08/21 04:18:09;;;;;;;2.00;1.50;;;;;;;;;;5071375;28;20041;-80
2022/08/21 04:20:35;;;;;;;3.92;1.90;;;;;;;;;;5070489;28;20118;-80
2022/08/21 04:23:02;;;;;;;5.05;1.75;;;;;;;;;;5071098;28;20074;-80
2022/08/21 04:25:28;;;;;;;4.35;1.70;;;;;;;;;;5071222;28;20484;-80
2022/08/21 04:27:54;;;;;;;4.13;1.70;;;;;;;;;;5077826;28;20043;-80
2022/08/21 04:30:20;;;;;;;4.20;1.70;;;;;;;;;;5077474;28;20042;-81
2022/08/21 04:32:49;;;;;;;4.82;1.80;;;;;;;;;;5075915;28;20112;-81
2022/08/21 04:35:16;;;;;;;4.20;1.90;;;;;;;;;;5079155;28;20032;-81
2022/08/21 04:37:42;;;;;;;3.38;1.85;;;;;;;;;;5082309;28;20073;-81
2022/08/21 04:40:09;;;;;;;4.35;1.50;;;;;;;;;;5088476;28;20029;-81
2022/08/21 04:42:41;;;;;;;4.88;1.90;;;;;;;;;;5088846;28;20400;-81
2022/08/21 04:45:07;;;;;;;2.42;1.48;;;;;;;;;;5073430;28;20057;-81
2022/08/21 04:47:33;;;;;;;4.40;1.80;;;;;;;;;;5083519;28;20259;-80
2022/08/21 04:49:59;;;;;;;5.43;1.70;;;;;;;;;;5077587;28;20039;-80
2022/08/21 04:52:25;;;;;;;5.20;2.10;;;;;;;;;;5083151;28;20045;-81
2022/08/21 04:54:52;;;;;;;5.00;1.73;;;;;;;;;;5090293;28;20043;-81
2022/08/21 04:57:18;;;;;;;3.97;1.70;;;;;;;;;;5088782;28;20028;-81
2022/08/21 04:59:49;;;;;;;4.72;1.90;;;;;;;;;;5091025;28;20114;-81
2022/08/21 05:02:15;;;;;;;3.15;1.73;;;;;;;;;;5075915;28;20467;-80
2022/08/21 05:04:46;;;;;;;3.63;1.40;;;;;;;;;;5069474;28;20466;-81
2022/08/21 05:07:14;;;;;;;4.57;2.00;;;;;;;;;;5071741;28;20028;-80
2022/08/21 05:09:40;;;;;;;4.05;1.80;;;;;;;;;;5076138;28;20031;-81
2022/08/21 05:12:07;;;;;;;4.28;1.75;;;;;;;;;;5074247;28;20029;-81
2022/08/21 05:14:33;;;;;;;4.30;1.80;;;;;;;;;;5074770;28;20086;-80
2022/08/21 05:16:59;;;;;;;4.35;1.83;;;;;;;;;;5074434;28;20028;-81
2022/08/21 05:19:25;;;;;;;3.22;1.92;;;;;;;;;;5074643;28;20033;-82
2022/08/21 05:21:51;;;;;;;5.10;2.00;;;;;;;;;;5075231;28;20028;-80
2022/08/21 05:24:17;;;;;;;3.85;1.65;;;;;;;;;;5074572;28;20028;-80
2022/08/21 05:26:44;;;;;;;3.70;1.92;;;;;;;;;;5073630;28;20511;-80
2022/08/21 05:29:10;;;;;;;3.17;1.60;;;;;;;;;;5074403;28;20024;-81
2022/08/21 05:31:37;;;;;;;3.88;1.73;;;;;;;;;;5075436;28;20108;-81
2022/08/21 05:34:03;;;;;;;3.28;1.30;;;;;;;;;;5095850;28;20550;-81
2022/08/21 05:36:29;;;;;;;3.38;1.73;;;;;;;;;;5093813;28;20028;-81
2022/08/21 05:38:55;;;;;;;4.03;1.58;;;;;;;;;;5094347;28;20074;-81
2022/08/21 05:41:21;;;;;;;4.97;2.00;;;;;;;;;;5093998;28;20024;-81
2022/08/21 05:43:47;;;;;;;4.10;1.70;;;;;;;;;;5094337;28;20027;-81
2022/08/21 05:46:13;;;;;;;2.83;1.45;;;;;;;;;;5092235;28;20031;-81
2022/08/21 05:48:39;;;;;;;3.22;1.50;;;;;;;;;;5092633;28;20024;-80
2022/08/21 05:51:06;;;;;;;3.42;1.40;;;;;;;;;;5094951;28;20099;-81
2022/08/21 05:53:33;;;;;;;4.30;1.85;;;;;;;;;;5092842;28;20036;-80
2022/08/21 05:55:59;;;;;;;4.80;1.75;;;;;;;;;;5083633;28;20024;-81
2022/08/21 05:58:25;;;;;;;3.97;1.80;;;;;;;;;;5081397;28;20482;-80
2022/08/21 06:00:52;;;;;;;3.30;1.70;;;;;;;;;;5080188;28;20287;-81
2022/08/21 06:03:22;;;;;;;2.92;1.45;;;;;;;;;;5080341;28;20020;-84
2022/08/21 06:05:48;;;;;;;3.28;1.30;;;;;;;;;;5077381;28;20021;-81
2022/08/21 06:08:15;;;;;;;3.22;1.55;;;;;;;;;;5082300;28;20385;-80
2022/08/21 06:10:41;;;;;;;5.13;1.80;;;;;;;;;;5079243;28;20048;-81
2022/08/21 06:13:07;;;;;;;3.70;1.65;;;;;;;;;;5081604;28;20064;-81
2022/08/21 06:15:34;;;;;;;4.05;1.40;;;;;;;;;;5078289;28;20020;-80
2022/08/21 06:18:00;;;;;;;3.72;1.45;;;;;;;;;;5080538;28;20021;-81
2022/08/21 06:20:26;;;;;;;2.95;1.40;;;;;;;;;;5071495;28;20540;-80
2022/08/21 06:22:52;;;;;;;2.85;1.42;;;;;;;;;;5073230;28;20021;-83
2022/08/21 06:25:19;;;;;;;3.25;1.60;;;;;;;;;;5072915;28;20021;-81
2022/08/21 06:27:44;;;;;;;3.05;1.15;;;;;;;;;;5071977;28;20048;-82
2022/08/21 06:30:11;;;;;;;5.30;1.50;;;;;;;;;;5073310;28;20028;-81
2022/08/21 06:32:37;;;;;;;3.38;1.20;;;;;;;;;;5072660;28;20085;-81
2022/08/21 06:35:03;;;;;;;3.03;1.17;;;;;;;;;;5073075;28;20029;-81
2022/08/21 06:37:29;;;;;;;5.43;1.33;;;;;;;;;;5079618;28;20032;-81
2022/08/21 06:39:55;;;;;;;3.22;1.13;;;;;;;;;;5093468;28;20073;-81
2022/08/21 06:42:21;;;;;;;2.38;1.08;;;;;;;;;;5092649;28;20024;-81
2022/08/21 06:44:47;;;;;;;3.28;1.10;;;;;;;;;;5093549;28;20052;-81
2022/08/21 06:47:13;;;;;;;3.67;1.10;;;;;;;;;;5094536;28;20059;-80
2022/08/21 06:49:39;;;;;;;3.30;0.95;;;;;;;;;;5089419;28;20028;-82
2022/08/21 06:52:09;;;;;;;2.78;1.23;;;;;;;;;;5094145;28;20058;-81
2022/08/21 06:54:36;;;;;;;3.92;1.10;;;;;;;;;;5087378;28;20035;-81
2022/08/21 06:57:02;;;;;;;2.75;1.15;;;;;;;;;;5078814;28;20523;-81
2022/08/21 06:59:27;;;;;;;2.60;1.02;;;;;;;;;;5079574;28;20020;-83
2022/08/21 07:01:53;;;;;;;4.30;1.30;;;;;;;;;;5076298;28;20066;-81
2022/08/21 07:04:20;;;;;;;3.13;1.17;;;;;;;;;;5080249;28;20086;-83
2022/08/21 07:06:46;;;;;;;2.38;1.25;;;;;;;;;;5082488;28;20073;-80
2022/08/21 07:09:12;;;;;;;3.75;1.17;;;;;;;;;;5083820;28;20668;-81
2022/08/21 07:11:38;;;;;;;3.47;1.20;;;;;;;;;;5082063;28;20445;-81
2022/08/21 07:14:04;;;;;;;3.17;1.15;;;;;;;;;;5074721;28;20041;-81
2022/08/21 07:16:30;;;;;;;2.22;0.93;;;;;;;;;;5077270;28;20020;-81
2022/08/21 07:18:56;;;;;;;3.65;1.30;;;;;;;;;;5076122;28;20539;-81
2022/08/21 07:21:22;;;;;;;3.30;1.08;;;;;;;;;;5073337;28;20023;-81
2022/08/21 07:23:50;;;;;;;2.83;0.93;;;;;;;;;;5077263;28;20020;-84
2022/08/21 07:26:17;;;;;;;2.63;0.93;;;;;;;;;;5078510;28;20032;-81
2022/08/21 07:28:43;;;;;;;2.83;1.10;;;;;;;;;;5076421;28;20028;-89
2022/08/21 07:31:10;;;;;;;3.35;0.90;;;;;;;;;;5077316;28;20398;-86
2022/08/21 07:33:36;;;;;;;2.50;1.08;;;;;;;;;;5078600;28;20059;-84
2022/08/21 07:36:03;;;;;;;2.47;0.98;;;;;;;;;;5072840;28;20497;-86
2022/08/21 07:38:30;;;;;;;4.37;1.30;;;;;;;;;;5073805;28;20070;-85
2022/08/21 07:40:58;;;;;;;4.00;1.25;;;;;;;;;;5072965;28;20642;-87
2022/08/21 07:43:25;;;;;;;3.08;1.00;;;;;;;;;;5071487;28;20390;-85
2022/08/21 07:45:53;;;;;;;3.72;1.10;;;;;;;;;;5075374;28;20026;-87
2022/08/21 07:48:19;;;;;;;3.85;1.08;;;;;;;;;;5075009;28;20020;-87
2022/08/21 07:50:45;;;;;;;2.67;0.85;;;;;;;;;;5078314;28;20364;-86
2022/08/21 07:53:11;;;;;;;2.13;0.93;;;;;;;;;;5073746;28;20044;-86
2022/08/21 07:55:37;;;;;;;3.42;0.90;;;;;;;;;;5074295;28;20867;-79
2022/08/21 07:58:03;;;;;;;3.17;1.00;;;;;;;;;;5073992;28;20067;-85
2022/08/21 08:00:30;;;;;;;2.78;1.00;;;;;;;;;;5077576;28;20505;-86
2022/08/21 08:02:56;;;;;;;1.40;0.80;;;;;;;;;;5079859;28;21064;-83
2022/08/21 08:05:24;;;;;;;2.55;1.02;;;;;;;;;;5076060;28;20093;-79
2022/08/21 08:07:50;;;;;;;2.35;0.90;;;;;;;;;;5073990;28;20098;-86
2022/08/21 08:10:16;;;;;;;1.80;0.85;;;;;;;;;;5076947;28;20540;-86
2022/08/21 08:12:43;;;;;;;3.15;1.25;;;;;;;;;;5071467;28;20028;-78
2022/08/21 08:15:14;;;;;;;2.30;0.98;;;;;;;;;;5080883;28;20032;-79
2022/08/21 08:17:40;;;;;;;2.53;1.00;;;;;;;;;;5076527;28;20024;-82
2022/08/21 08:20:07;;;;;;;1.95;0.77;;;;;;;;;;5073105;28;20048;-78
2022/08/21 08:22:34;;;;;;;2.78;1.00;;;;;;;;;;5077969;28;20023;-79
2022/08/21 08:25:00;;;;;;;2.00;0.75;;;;;;;;;;5076344;28;20035;-80
2022/08/21 08:27:26;;;;;;;2.35;0.90;;;;;;;;;;5075255;28;20044;-82
2022/08/21 08:29:52;;;;;;;1.90;0.80;;;;;;;;;;5071862;28;20131;-78
2022/08/21 08:32:19;;;;;;;2.50;0.93;;;;;;;;;;5070519;28;20027;-78
2022/08/21 08:34:46;;;;;;;1.58;0.70;;;;;;;;;;5076218;28;20039;-78
2022/08/21 08:37:12;;;;;;;2.42;0.70;;;;;;;;;;5078008;28;20036;-77
2022/08/21 08:39:38;;;;;;;3.50;1.00;;;;;;;;;;5075472;28;20021;-78
2022/08/21 08:42:21;;;;;;;4.45;0.90;;;;;;;;;;5074687;28;20651;-77
2022/08/21 08:44:47;;;;;;;1.30;0.75;;;;;;;;;;5083163;28;20021;-77
2022/08/21 08:47:15;;;;;;;1.77;0.65;;;;;;;;;;5076225;28;20140;-79
2022/08/21 08:49:45;;;;;;;2.72;1.00;;;;;;;;;;5076023;28;20059;-77
2022/08/21 08:52:17;;;;;;;2.97;0.88;;;;;;;;;;5076780;28;20055;-78
2022/08/21 08:54:48;;;;;;;2.17;0.93;;;;;;;;;;5071239;28;20044;-77
2022/08/21 08:57:19;;;;;;;2.03;1.00;;;;;;;;;;5072001;28;20028;-77
2022/08/21 08:59:50;;;;;;;3.40;1.08;;;;;;;;;;5073793;28;20093;-79
2022/08/21 09:02:17;;;;;;;2.38;1.00;;;;;;;;;;5074262;28;20509;-78
2022/08/21 09:04:44;;;;;;;2.75;1.00;;;;;;;;;;5076555;28;20016;-78
2022/08/21 09:07:10;;;;;;;3.53;1.20;;;;;;;;;;5075410;28;20493;-77
2022/08/21 09:09:45;;;;;;;1.88;0.85;;;;;;;;;;5079036;28;20033;-77
2022/08/21 09:12:14;;;;;;;2.30;0.88;;;;;;;;;;5075228;28;20055;-77
2022/08/21 09:15:07;;;;;;;2.47;0.80;;;;;;;;;;5085491;28;20662;-78
2022/08/21 09:17:45;;;;;;;2.40;0.90;;;;;;;;;;5045244;28;20474;-78
2022/08/21 09:20:18;;;;;;;1.73;0.95;;;;;;;;;;5078396;28;20029;-77
2022/08/21 09:22:47;;;;;;;1.90;1.02;;;;;;;;;;5070927;28;20029;-78
2022/08/21 09:25:22;;;;;;;1.92;0.70;;;;;;;;;;5076623;28;20024;-77
2022/08/21 09:27:48;;;;;;;6.28;1.15;;;;;;;;;;5081066;28;20053;-78
2022/08/21 09:30:14;;;;;;;3.33;1.00;;;;;;;;;;5078665;28;20029;-77
2022/08/21 09:32:41;;;;;;;4.32;1.30;;;;;;;;;;5078948;28;20020;-78
2022/08/21 09:35:07;;;;;;;3.85;1.17;;;;;;;;;;5080187;28;20139;-78
2022/08/21 09:37:35;;;;;;;1.90;1.08;;;;;;;;;;5077464;28;20027;-77
2022/08/21 09:40:02;;;;;;;3.20;1.00;;;;;;;;;;5074308;28;20372;-78
2022/08/21 09:42:31;;;;;;;2.95;1.00;;;;;;;;;;5079178;28;20073;-79
2022/08/21 09:45:15;;;;;;;2.60;0.93;;;;;;;;;;5071592;28;20390;-77
2022/08/21 09:47:43;;;;;;;3.50;1.38;;;;;;;;;;5082710;28;20115;-78
2022/08/21 09:50:21;;;;;;;5.65;1.65;;;;;;;;;;5075914;28;20478;-78
2022/08/21 09:52:49;;;;;;;3.72;1.10;;;;;;;;;;5075831;28;20031;-79
2022/08/21 09:58:20;;;;;;;3.10;1.40;;;;;;;;;;5078634;28;20043;-78
2022/08/21 10:00:56;;;;;;;2.88;1.00;;;;;;;;;;5076664;28;20532;-82
2022/08/21 10:03:24;;;;;;;2.85;1.38;;;;;;;;;;5082432;28;20492;-78
2022/08/21 10:05:51;;;;;;;4.03;1.40;;;;;;;;;;5075574;28;20021;-80
2022/08/21 10:08:18;;;;;;;2.65;1.02;;;;;;;;;;5079288;28;20047;-80
2022/08/21 10:10:44;;;;;;;4.03;1.42;;;;;;;;;;5072611;28;20050;-78
2022/08/21 10:13:29;;;;;;;4.80;1.80;;;;;;;;;;5075308;28;20371;-78
2022/08/21 10:16:04;;;;;;;5.10;1.30;;;;;;;;;;5076078;28;20016;-78
2022/08/21 10:18:30;;;;;;;3.70;1.33;;;;;;;;;;5078041;28;20070;-78
2022/08/21 10:21:05;;;;;;;2.17;1.20;;;;;;;;;;5078812;28;20028;-77
2022/08/21 10:23:34;;;;;;;2.75;1.27;;;;;;;;;;5078582;28;20042;-80
2022/08/21 10:26:17;;;;;;;3.83;1.60;;;;;;;;;;5078312;28;20105;-78
2022/08/21 10:28:52;;;;;;;4.55;1.55;;;;;;;;;;5076422;28;20020;-78
2022/08/21 10:31:23;;;;;;;3.42;1.30;;;;;;;;;;5081361;28;20016;-78
2022/08/21 10:34:08;;;;;;;3.08;1.48;;;;;;;;;;5077881;28;20037;-78
2022/08/21 10:36:40;;;;;;;3.25;1.60;;;;;;;;;;5080042;28;20080;-78
2022/08/21 10:39:24;;;;;;;3.35;1.30;;;;;;;;;;5074613;28;20028;-77
2022/08/21 10:41:56;;;;;;;4.95;1.63;;;;;;;;;;5081109;28;20208;-79
2022/08/21 10:44:45;;;;;;;3.33;1.40;;;;;;;;;;5077070;28;20175;-81
2022/08/21 10:47:23;;;;;;;4.18;1.30;;;;;;;;;;5035681;28;20037;-81
2022/08/21 10:50:04;;;;;;;2.97;1.27;;;;;;;;;;5083038;28;20067;-78
2022/08/21 10:52:30;;;;;;;2.15;1.08;;;;;;;;;;5074953;28;20394;-74
2022/08/21 10:55:14;;;;;;;3.92;1.23;;;;;;;;;;5076700;28;20040;-72
2022/08/21 10:57:57;;;;;;;1.85;1.10;;;;;;;;;;5078229;28;20021;-72
2022/08/21 11:00:25;;;;;;;5.45;1.75;;;;;;;;;;5077352;28;20262;-73
2022/08/21 11:02:54;;;;;;;3.05;1.20;;;;;;;;;;5084142;28;20417;-73
2022/08/21 11:05:32;;;;;;;3.28;1.48;;;;;;;;;;5071611;28;20432;-72
2022/08/21 11:08:08;;;;;;;4.53;1.42;;;;;;;;;;5078746;28;20034;-72
2022/08/21 11:10:41;;;;;;;4.40;1.48;;;;;;;;;;5080724;28;20017;-72
2022/08/21 11:13:14;;;;;;;5.00;1.85;;;;;;;;;;5088136;28;20032;-73
2022/08/21 11:15:46;;;;;;;4.18;1.50;;;;;;;;;;5074662;28;20438;-72
2022/08/21 11:18:22;;;;;;;5.18;1.73;;;;;;;;;;5074387;28;20090;-72
2022/08/21 11:20:59;;;;;;;3.70;1.52;;;;;;;;;;5075589;28;20016;-72
2022/08/21 11:23:26;;;;;;;3.22;1.30;;;;;;;;;;5083963;28;20348;-72
2022/08/21 11:25:56;;;;;;;3.63;1.38;;;;;;;;;;5077338;28;20016;-72
2022/08/21 11:28:28;;;;;;;3.03;1.33;;;;;;;;;;5086357;28;20466;-73
2022/08/21 11:30:54;;;;;;;4.47;1.40;;;;;;;;;;5072702;28;20497;-73
2022/08/21 11:33:29;;;;;;;2.38;1.08;;;;;;;;;;5075378;28;20025;-74
2022/08/21 11:36:03;;;;;;;2.40;1.00;;;;;;;;;;5076843;28;20083;-73
2022/08/21 11:38:39;;;;;;;4.50;1.30;;;;;;;;;;5072516;28;20563;-73
2022/08/21 11:41:14;;;;;;;4.22;1.23;;;;;;;;;;5074450;28;20028;-74
2022/08/21 11:43:45;;;;;;;3.80;1.27;;;;;;;;;;5072805;28;20028;-72
2022/08/21 11:46:19;;;;;;;3.88;1.02;;;;;;;;;;5074367;28;20505;-74
2022/08/21 11:49:00;;;;;;;3.47;1.20;;;;;;;;;;5074463;28;20080;-72
2022/08/21 11:51:41;;;;;;;3.97;0.95;;;;;;;;;;5078399;28;20023;-74
2022/08/21 11:54:18;;;;;;;3.50;1.10;;;;;;;;;;5078276;28;20039;-73
2022/08/21 11:56:47;;;;;;;3.58;1.15;;;;;;;;;;5076344;28;20024;-73
2022/08/21 11:59:33;;;;;;;1.52;1.00;;;;;;;;;;5071803;28;20036;-72
2022/08/21 12:02:00;;;;;;;3.08;1.00;;;;;;;;;;5070846;28;20052;-72
2022/08/21 12:04:28;;;;;;;2.92;1.08;;;;;;;;;;5081456;28;20107;-72
2022/08/21 12:06:54;;;;;;;3.20;0.85;;;;;;;;;;5074806;28;20025;-73
2022/08/21 12:09:26;;;;;;;3.55;0.90;;;;;;;;;;5079151;28;20032;-72
2022/08/21 12:12:06;;;;;;;1.83;0.88;;;;;;;;;;5073998;28;20856;-73
2022/08/21 12:14:37;;;;;;;3.65;1.30;;;;;;;;;;5071180;28;20025;-74
2022/08/21 12:17:07;;;;;;;1.95;1.10;;;;;;;;;;5076589;28;20032;-76
2022/08/21 12:19:34;;;;;;;3.35;1.02;;;;;;;;;;5078691;28;20031;-78
2022/08/21 12:22:03;;;;;;;4.05;1.10;;;;;;;;;;5078623;28;20104;-76
2022/08/21 12:24:34;;;;;;;3.55;1.10;;;;;;;;;;5076207;28;20039;-77
2022/08/21 12:27:13;;;;;;;2.28;1.00;;;;;;;;;;5083423;28;20040;-76
2022/08/21 12:29:45;;;;;;;1.98;0.70;;;;;;;;;;5078662;28;20029;-75
2022/08/21 12:32:11;;;;;;;2.78;0.90;;;;;;;;;;5070691;28;20024;-76
2022/08/21 12:34:49;;;;;;;3.63;1.00;;;;;;;;;;5070337;28;20036;-77
2022/08/21 12:37:23;;;;;;;3.00;1.00;;;;;;;;;;5079266;28;20029;-79
2022/08/21 12:39:51;;;;;;;3.47;1.17;;;;;;;;;;5077382;28;20027;-75
2022/08/21 12:42:18;;;;;;;2.95;1.10;;;;;;;;;;5075167;28;20020;-76
2022/08/21 12:44:54;;;;;;;2.08;0.93;;;;;;;;;;5080504;28;20046;-76
2022/08/21 12:47:31;;;;;;;3.28;1.30;;;;;;;;;;5088155;28;20435;-76
2022/08/21 12:50:05;;;;;;;3.65;1.30;;;;;;;;;;5085977;28;20028;-76
2022/08/21 12:52:40;;;;;;;2.90;1.05;;;;;;;;;;5078750;28;20043;-79
2022/08/21 12:55:07;;;;;;;2.22;1.10;;;;;;;;;;5087021;28;20131;-81
2022/08/21 12:57:36;;;;;;;3.72;1.05;;;;;;;;;;5088013;28;20065;-79
2022/08/21 13:00:06;;;;;;;3.28;1.10;;;;;;;;;;5088545;28;20016;-79
2022/08/21 13:02:34;;;;;;;3.55;0.77;;;;;;;;;;5090915;28;20012;-79
2022/08/21 13:05:03;;;;;;;2.60;1.05;;;;;;;;;;5087202;28;20038;-80
2022/08/21 13:07:31;;;;;;;2.05;0.73;;;;;;;;;;5090009;28;20028;-78
2022/08/21 13:09:58;;;;;;;;;;;;;;;;;;5089384;28;20034;-79
2022/08/21 13:12:24;;;;;;;3.05;1.00;;;;;;;;;;5086333;28;20278;-79
2022/08/21 13:14:51;;;;;;;2.67;0.80;;;;;;;;;;5072476;28;20305;-79
2022/08/21 13:17:19;;;;;;;3.10;1.10;;;;;;;;;;5070190;28;20023;-79
2022/08/21 13:20:03;;;;;;;2.53;1.00;;;;;;;;;;5075881;28;20024;-79
2022/08/21 13:22:29;;;;;;;2.95;1.02;;;;;;;;;;5074650;28;20021;-79
2022/08/21 13:24:56;;;;;;;3.13;1.02;;;;;;;;;;5072055;28;20073;-79
2022/08/21 13:27:29;;;;;;;3.80;1.27;;;;;;;;;;5074659;28;20143;-79
2022/08/21 13:30:04;;;;;;;3.28;0.80;;;;;;;;;;5076010;28;20016;-79
2022/08/21 13:32:32;;;;;;;2.15;0.73;;;;;;;;;;5075340;28;20017;-79
2022/08/21 13:34:59;;;;;;;1.75;0.75;;;;;;;;;;5073483;28;20433;-79
2022/08/21 13:37:28;;;;;;;2.88;0.90;;;;;;;;;;5079219;28;20036;-79
2022/08/21 13:39:54;;;;;;;2.50;1.20;;;;;;;;;;5096051;28;20111;-79
2022/08/21 13:42:23;;;;;;;2.83;0.90;;;;;;;;;;5093020;28;20237;-79
2022/08/21 13:44:52;;;;;;;3.33;1.02;;;;;;;;;;5094200;28;20631;-79
2022/08/21 13:47:18;;;;;;;;;;;;;;;;;;5093676;28;20063;-79
2022/08/21 13:49:46;;;;;;;3.60;1.13;;;;;;;;;;5094183;28;19946;-79
2022/08/21 13:52:17;;;;;;;2.47;1.20;;;;;;;;;;5094821;28;20047;-79
2022/08/21 13:54:44;;;;;;;1.92;1.00;;;;;;;;;;5094498;28;20401;-81
2022/08/21 13:57:20;;;;;;;5.13;1.02;;;;;;;;;;5092997;28;20165;-80
2022/08/21 13:59:46;;;;;;;2.83;1.00;;;;;;;;;;5075084;28;20021;-79
2022/08/21 14:02:18;;;;;;;3.20;1.00;;;;;;;;;;5072481;28;20024;-79
2022/08/21 14:05:04;;;;;;;2.97;0.90;;;;;;;;;;5073585;28;20025;-80
2022/08/21 14:07:35;;;;;;;3.13;1.00;;;;;;;;;;5073711;28;20063;-79
2022/08/21 14:10:05;;;;;;;1.92;0.95;;;;;;;;;;5075163;28;20378;-79
2022/08/21 14:12:38;;;;;;;3.20;1.15;;;;;;;;;;5074986;28;20020;-79
2022/08/21 14:15:05;;;;;;;3.45;1.10;;;;;;;;;;5094833;28;20046;-79
2022/08/21 14:17:36;;;;;;;2.85;1.30;;;;;;;;;;5093761;28;20024;-80
2022/08/21 14:20:04;;;;;;;2.78;1.08;;;;;;;;;;5093892;28;20020;-80
2022/08/21 14:22:36;;;;;;;5.85;1.00;;;;;;;;;;5092642;28;20051;-79
2022/08/21 14:25:11;;;;;;;3.28;0.90;;;;;;;;;;5092931;28;20021;-81
2022/08/21 14:27:40;;;;;;;5.88;1.30;;;;;;;;;;5087759;28;20109;-79
2022/08/21 14:30:11;;;;;;;2.10;1.00;;;;;;;;;;5073941;28;20024;-79
2022/08/21 14:32:38;;;;;;;5.90;1.27;;;;;;;;;;5072145;28;20025;-80
2022/08/21 14:35:04;;;;;;;5.07;1.40;;;;;;;;;;5073063;28;20037;-80
2022/08/21 14:37:30;;;;;;;4.47;1.02;;;;;;;;;;5073455;28;20017;-80
2022/08/21 14:39:56;;;;;;;5.47;1.02;;;;;;;;;;5085731;28;20395;-79
2022/08/21 14:42:23;;;;;;;4.50;1.13;;;;;;;;;;5071588;28;20355;-80
2022/08/21 14:44:49;;;;;;;4.35;1.05;;;;;;;;;;5074171;28;20048;-79
2022/08/21 14:47:15;;;;;;;5.43;1.27;;;;;;;;;;5073384;28;20059;-79
2022/08/21 14:49:42;;;;;;;3.15;1.15;;;;;;;;;;5088260;28;20024;-79
2022/08/21 14:52:08;;;;;;;3.78;1.23;;;;;;;;;;5082774;28;20025;-79
2022/08/21 14:54:34;;;;;;;4.28;1.38;;;;;;;;;;5074361;28;20115;-79